createdAt,value
2018-09-28T00:00:17.848Z,9.18
2018-09-28T00:03:23.814Z,9.16
2018-09-28T00:06:29.581Z,9.13
2018-09-28T00:09:35.704Z,9.10
2018-09-28T00:12:41.690Z,9.04
2018-09-28T00:15:48.249Z,9.04
2018-09-28T00:18:54.117Z,9.00
2018-09-28T00:22:00.601Z,8.95
2018-09-28T00:25:05.680Z,8.85
2018-09-28T00:28:10.689Z,8.82
2018-09-28T00:31:17.427Z,8.84
2018-09-28T00:34:22.455Z,8.80
2018-09-28T00:37:27.473Z,8.75
2018-09-28T00:40:33.658Z,8.71
2018-09-28T00:43:39.316Z,8.69
2018-09-28T00:46:45.199Z,8.65
2018-09-28T00:49:51.053Z,8.59
2018-09-28T00:52:57.219Z,8.63
2018-09-28T00:56:04.065Z,8.64
2018-09-28T00:59:09.191Z,8.62
2018-09-28T01:02:15.374Z,8.61
2018-09-28T01:05:21.237Z,8.54
2018-09-28T01:08:26.303Z,8.51
2018-09-28T01:11:33.193Z,8.47
2018-09-28T01:14:39.913Z,8.46
2018-09-28T01:17:48.005Z,8.46
2018-09-28T01:20:54.541Z,8.44
2018-09-28T01:24:00.644Z,8.42
2018-09-28T01:27:06.969Z,8.41
2018-09-28T01:30:12.023Z,8.35
2018-09-28T01:33:17.005Z,8.34
2018-09-28T01:36:22.046Z,8.32
2018-09-28T01:39:27.997Z,8.27
2018-09-28T01:42:33.026Z,8.29
2018-09-28T01:45:38.051Z,8.27
2018-09-28T01:48:43.049Z,8.27
2018-09-28T01:51:49.001Z,8.20
2018-09-28T01:54:54.132Z,8.22
2018-09-28T01:58:00.074Z,8.21
2018-09-28T02:01:06.161Z,8.17
2018-09-28T02:04:11.195Z,8.11
2018-09-28T02:07:17.134Z,8.09
2018-09-28T02:10:23.879Z,8.08
2018-09-28T02:13:28.892Z,8.10
2018-09-28T02:16:34.906Z,8.09
2018-09-28T02:19:40.004Z,8.07
2018-09-28T02:22:46.078Z,8.04
2018-09-28T02:25:54.530Z,8.05
2018-09-28T02:29:01.098Z,8.04
2018-09-28T02:32:06.204Z,7.99
2018-09-28T02:35:12.149Z,8.00
2018-09-28T02:38:17.196Z,8.00
2018-09-28T02:41:22.230Z,8.03
2018-09-28T02:44:27.269Z,8.04
2018-09-28T02:47:33.963Z,8.01
2018-09-28T02:50:39.749Z,7.96
2018-09-28T02:53:46.205Z,7.96
2018-09-28T02:56:51.288Z,7.96
2018-09-28T02:59:56.320Z,7.88
2018-09-28T03:03:02.343Z,7.88
2018-09-28T03:06:07.386Z,7.90
2018-09-28T03:09:12.382Z,7.85
2018-09-28T03:12:17.998Z,7.86
2018-09-28T03:15:23.884Z,7.81
2018-09-28T03:18:31.173Z,7.78
2018-09-28T03:21:37.148Z,7.77
2018-09-28T03:24:43.038Z,7.76
2018-09-28T03:27:49.076Z,7.75
2018-09-28T03:30:56.117Z,7.70
2018-09-28T03:34:02.417Z,7.72
2018-09-28T03:37:09.651Z,7.70
2018-09-28T03:40:16.314Z,7.66
2018-09-28T03:43:22.018Z,7.68
2018-09-28T03:46:27.094Z,7.67
2018-09-28T03:49:32.323Z,7.67
2018-09-28T03:52:38.438Z,7.63
2018-09-28T03:55:45.058Z,7.66
2018-09-28T03:58:50.103Z,7.63
2018-09-28T04:01:56.097Z,7.58
2018-09-28T04:05:02.224Z,7.56
2018-09-28T04:08:08.999Z,7.52
2018-09-28T04:11:15.147Z,7.47
2018-09-28T04:14:21.021Z,7.40
2018-09-28T04:17:27.162Z,7.45
2018-09-28T04:20:33.978Z,7.44
2018-09-28T04:23:39.836Z,7.43
2018-09-28T04:26:46.470Z,7.40
2018-09-28T04:29:51.647Z,7.38
2018-09-28T04:32:56.882Z,7.32
2018-09-28T04:36:02.534Z,7.35
2018-09-28T04:39:09.018Z,7.33
2018-09-28T04:42:15.434Z,7.33
2018-09-28T04:45:20.603Z,7.31
2018-09-28T04:48:25.660Z,7.28
2018-09-28T04:51:30.798Z,7.25
2018-09-28T04:54:36.259Z,7.20
2018-09-28T04:57:42.069Z,7.20
2018-09-28T05:00:47.194Z,7.18
2018-09-28T05:03:53.283Z,7.16
2018-09-28T05:06:59.432Z,7.15
2018-09-28T05:10:04.638Z,7.13
2018-09-28T05:14:53.277Z,6.99
2018-09-28T05:17:58.541Z,7.00
2018-09-28T05:21:04.535Z,6.93
2018-09-28T05:24:09.615Z,6.98
2018-09-28T05:27:15.349Z,7.02
2018-09-28T05:30:21.521Z,6.97
2018-09-28T05:33:26.599Z,7.00
2018-09-28T05:36:52.983Z,6.99
2018-09-28T05:40:05.843Z,6.95
2018-09-28T05:43:13.878Z,6.97
2018-09-28T05:46:22.596Z,7.00
2018-09-28T05:49:31.034Z,7.03
2018-09-28T05:52:41.831Z,7.05
2018-09-28T05:55:51.526Z,7.07
2018-09-28T05:59:05.797Z,7.10
2018-09-28T06:02:23.417Z,7.11
2018-09-28T06:05:35.846Z,7.14
2018-09-28T06:08:44.285Z,7.16
2018-09-28T06:11:57.622Z,7.20
2018-09-28T06:15:08.594Z,7.26
2018-09-28T06:18:16.873Z,7.31
2018-09-28T06:21:31.580Z,7.36
2018-09-28T06:24:44.384Z,7.40
2018-09-28T06:27:54.290Z,7.44
2018-09-28T06:31:05.206Z,7.51
2018-09-28T06:34:20.067Z,7.57
2018-09-28T06:37:34.047Z,7.62
2018-09-28T06:40:42.325Z,7.68
2018-09-28T06:43:50.885Z,7.75
2018-09-28T06:46:59.549Z,7.86
2018-09-28T06:50:09.303Z,7.97
2018-09-28T06:53:17.074Z,8.08
2018-09-28T06:56:26.387Z,8.24
2018-09-28T06:59:38.486Z,8.42
2018-09-28T07:02:51.958Z,8.59
2018-09-28T07:06:03.401Z,8.72
2018-09-28T07:09:10.205Z,8.92
2018-09-28T07:12:15.416Z,9.11
2018-09-28T07:15:20.413Z,9.31
2018-09-28T07:18:25.475Z,9.49
2018-09-28T07:21:30.437Z,9.67
2018-09-28T07:24:36.469Z,9.90
2018-09-28T07:27:42.512Z,10.21
2018-09-28T07:30:48.487Z,10.50
2018-09-28T07:33:54.399Z,10.75
2018-09-28T07:37:04.198Z,10.89
2018-09-28T07:40:12.435Z,11.10
2018-09-28T07:43:22.706Z,11.31
2018-09-28T07:46:31.405Z,11.67
2018-09-28T07:49:38.394Z,12.24
2018-09-28T07:52:47.203Z,12.51
2018-09-28T07:55:52.987Z,12.73
2018-09-28T07:58:58.708Z,12.97
2018-09-28T08:02:03.709Z,13.21
2018-09-28T08:05:09.463Z,13.49
2018-09-28T08:08:15.598Z,13.76
2018-09-28T08:11:20.574Z,14.06
2018-09-28T08:14:25.554Z,14.47
2018-09-28T08:17:30.678Z,14.80
2018-09-28T08:20:36.791Z,15.08
2018-09-28T08:23:41.811Z,15.53
2018-09-28T08:26:46.765Z,15.95
2018-09-28T08:29:51.747Z,16.05
2018-09-28T08:32:57.557Z,16.30
2018-09-28T08:36:02.542Z,16.29
2018-09-28T08:39:09.348Z,16.37
2018-09-28T08:42:14.335Z,16.63
2018-09-28T08:45:19.354Z,16.80
2018-09-28T08:48:24.331Z,16.93
2018-09-28T08:51:29.313Z,17.06
2018-09-28T08:54:34.321Z,17.15
2018-09-28T08:57:40.381Z,17.32
2018-09-28T09:00:45.362Z,17.49
2018-09-28T09:03:50.330Z,17.61
2018-09-28T09:06:55.318Z,17.76
2018-09-28T09:10:00.274Z,17.89
2018-09-28T09:13:06.134Z,18.11
2018-09-28T09:16:11.114Z,18.33
2018-09-28T09:19:16.478Z,18.32
2018-09-28T09:22:21.492Z,18.47
2018-09-28T09:25:27.289Z,18.54
2018-09-28T09:28:32.266Z,18.77
2018-09-28T09:31:37.255Z,18.81
2018-09-28T09:34:42.230Z,18.70
2018-09-28T09:37:48.257Z,18.72
2018-09-28T09:40:54.198Z,18.95
2018-09-28T09:43:59.157Z,19.17
2018-09-28T09:47:05.214Z,19.26
2018-09-28T09:50:10.183Z,19.40
2018-09-28T09:53:16.014Z,19.38
2018-09-28T09:56:20.992Z,19.24
2018-09-28T09:59:25.950Z,19.42
2018-09-28T10:02:36.783Z,19.43
2018-09-28T10:05:41.756Z,19.33
2018-09-28T10:08:47.089Z,19.40
2018-09-28T10:11:52.980Z,19.50
2018-09-28T10:14:58.728Z,19.67
2018-09-28T10:18:03.766Z,19.64
2018-09-28T10:21:08.889Z,19.68
2018-09-28T10:24:14.566Z,20.01
2018-09-28T10:27:19.753Z,19.84
2018-09-28T10:30:25.897Z,19.94
2018-09-28T10:33:31.213Z,20.01
2018-09-28T10:36:37.009Z,20.03
2018-09-28T10:39:42.033Z,20.12
2018-09-28T10:42:47.111Z,20.37
2018-09-28T10:45:52.941Z,20.42
2018-09-28T10:48:58.679Z,20.50
2018-09-28T10:52:05.716Z,20.64
2018-09-28T10:55:10.598Z,20.50
2018-09-28T10:58:15.810Z,20.73
2018-09-28T11:01:22.820Z,20.66
2018-09-28T11:04:27.828Z,20.63
2018-09-28T11:07:32.800Z,20.20
2018-09-28T11:10:37.829Z,20.12
2018-09-28T11:13:42.819Z,20.12
2018-09-28T11:16:47.829Z,20.30
2018-09-28T11:19:53.732Z,20.56
2018-09-28T11:22:59.714Z,20.46
2018-09-28T11:26:06.085Z,20.33
2018-09-28T11:29:13.506Z,20.33
2018-09-28T11:32:19.925Z,20.66
2018-09-28T11:35:25.434Z,20.77
2018-09-28T11:38:30.463Z,20.90
2018-09-28T11:41:36.764Z,20.99
2018-09-28T11:44:41.826Z,21.06
2018-09-28T11:47:46.813Z,21.28
2018-09-28T11:50:51.792Z,21.45
2018-09-28T11:53:57.966Z,21.17
2018-09-28T11:57:02.994Z,20.95
2018-09-28T12:00:08.011Z,21.35
2018-09-28T12:03:13.041Z,21.37
2018-09-28T12:06:18.054Z,21.08
2018-09-28T12:09:23.170Z,21.22
2018-09-28T12:14:55.258Z,21.28
2018-09-28T12:18:00.241Z,21.39
2018-09-28T12:21:05.281Z,21.12
2018-09-28T12:24:10.267Z,21.20
2018-09-28T12:27:15.255Z,21.73
2018-09-28T12:30:21.309Z,22.09
2018-09-28T12:33:26.324Z,22.19
2018-09-28T12:36:32.472Z,22.08
2018-09-28T12:39:37.506Z,21.95
2018-09-28T12:42:47.162Z,22.19
2018-09-28T12:45:52.992Z,22.51
2018-09-28T12:49:00.039Z,22.82
2018-09-28T12:52:05.277Z,22.84
2018-09-28T12:55:12.414Z,22.56
2018-09-28T12:58:20.073Z,22.44
2018-09-28T13:01:28.324Z,22.27
2018-09-28T13:04:37.301Z,22.44
2018-09-28T13:07:45.514Z,22.57
2018-09-28T13:10:52.774Z,22.59
2018-09-28T13:13:58.514Z,22.54
2018-09-28T13:17:06.759Z,22.27
2018-09-28T13:20:14.032Z,22.45
2018-09-28T13:23:27.266Z,22.14
2018-09-28T13:26:32.355Z,21.91
2018-09-28T13:29:47.290Z,21.78
2018-09-28T13:32:54.453Z,21.59
2018-09-28T13:36:00.909Z,21.49
2018-09-28T13:39:07.212Z,21.84
2018-09-28T13:42:12.449Z,22.01
2018-09-28T13:45:20.426Z,22.28
2018-09-28T13:48:25.515Z,22.27
2018-09-28T13:51:31.361Z,21.87
2018-09-28T13:54:37.192Z,21.60
2018-09-28T13:57:45.694Z,21.19
2018-09-28T14:00:52.509Z,21.32
2018-09-28T14:04:00.443Z,21.64
2018-09-28T14:07:07.798Z,22.00
2018-09-28T14:10:13.601Z,21.85
2018-09-28T14:13:20.121Z,21.83
2018-09-28T14:16:25.116Z,21.80
2018-09-28T14:19:30.802Z,21.41
2018-09-28T14:22:35.801Z,21.21
2018-09-28T14:25:40.741Z,21.05
2018-09-28T14:28:47.380Z,20.42
2018-09-28T14:31:52.505Z,19.84
2018-09-28T14:34:57.539Z,19.62
2018-09-28T14:38:02.559Z,19.46
2018-09-28T14:41:09.066Z,19.20
2018-09-28T14:44:19.149Z,18.93
2018-09-28T14:47:27.708Z,18.55
2018-09-28T14:50:36.100Z,18.46
2018-09-28T14:53:51.475Z,18.01
2018-09-28T14:57:01.442Z,17.84
2018-09-28T15:00:08.525Z,17.65
2018-09-28T15:03:18.484Z,17.55
2018-09-28T15:06:31.634Z,17.48
2018-09-28T15:09:44.459Z,17.16
2018-09-28T15:12:54.982Z,16.91
2018-09-28T15:16:03.610Z,16.62
2018-09-28T15:19:08.705Z,16.69
2018-09-28T15:22:16.440Z,16.63
2018-09-28T15:25:22.330Z,16.56
2018-09-28T15:28:29.610Z,16.31
2018-09-28T15:31:34.674Z,16.19
2018-09-28T15:34:39.702Z,16.11
2018-09-28T15:37:45.859Z,15.90
2018-09-28T15:40:52.297Z,15.82
2018-09-28T15:43:57.400Z,15.80
2018-09-28T15:47:03.238Z,15.72
2018-09-28T15:50:08.288Z,15.83
2018-09-28T15:53:13.553Z,15.68
2018-09-28T15:56:18.663Z,15.75
2018-09-28T15:59:25.388Z,15.73
2018-09-28T16:02:30.838Z,15.71
2018-09-28T16:05:35.927Z,15.58
2018-09-28T16:08:40.964Z,15.55
2018-09-28T16:11:46.104Z,15.46
2018-09-28T16:14:53.650Z,15.50
2018-09-28T16:17:59.642Z,15.30
2018-09-28T16:21:04.916Z,15.28
2018-09-28T16:24:09.987Z,15.17
2018-09-28T16:27:15.023Z,15.16
2018-09-28T16:30:21.110Z,15.17
2018-09-28T16:33:26.182Z,14.84
2018-09-28T16:36:40.105Z,14.90
2018-09-28T16:39:45.458Z,14.57
2018-09-28T16:42:51.127Z,14.50
2018-09-28T16:45:56.286Z,14.53
2018-09-28T16:49:02.347Z,14.45
2018-09-28T16:52:08.286Z,14.42
2018-09-28T16:55:13.312Z,14.30
2018-09-28T16:58:18.321Z,14.31
2018-09-28T17:01:23.429Z,14.24
2018-09-28T17:04:28.419Z,14.01
2018-09-28T17:07:33.483Z,13.91
2018-09-28T17:10:40.826Z,13.81
2018-09-28T17:13:46.014Z,13.49
2018-09-28T17:16:51.254Z,13.50
2018-09-28T17:19:57.410Z,13.61
2018-09-28T17:23:02.627Z,13.73
2018-09-28T17:26:07.705Z,13.67
2018-09-28T17:29:12.747Z,13.41
2018-09-28T17:32:19.467Z,13.50
2018-09-28T17:35:24.731Z,13.54
2018-09-28T17:38:29.743Z,13.66
2018-09-28T17:41:36.190Z,13.72
2018-09-28T17:44:41.224Z,13.72
2018-09-28T17:47:46.276Z,13.67
2018-09-28T17:50:51.917Z,13.71
2018-09-28T17:53:57.398Z,13.61
2018-09-28T17:57:02.487Z,13.70
2018-09-28T18:00:07.555Z,13.71
2018-09-28T18:03:12.585Z,13.76
2018-09-28T18:06:18.382Z,13.75
2018-09-28T18:09:24.417Z,13.71
2018-09-28T18:12:30.002Z,13.79
2018-09-28T18:15:35.078Z,13.76
2018-09-28T18:18:41.210Z,13.71
2018-09-28T18:21:47.047Z,13.66
2018-09-28T18:24:52.782Z,13.68
2018-09-28T18:27:57.865Z,13.70
2018-09-28T18:31:03.740Z,13.75
2018-09-28T18:34:10.150Z,13.77
2018-09-28T18:37:16.186Z,13.79
2018-09-28T18:40:21.193Z,13.83
2018-09-28T18:43:26.221Z,13.73
2018-09-28T18:46:32.377Z,13.72
2018-09-28T18:49:37.917Z,13.71
2018-09-28T18:52:42.993Z,13.73
2018-09-28T18:55:48.154Z,13.70
2018-09-28T18:58:53.283Z,13.65
2018-09-28T19:01:58.243Z,13.64
2018-09-28T19:05:03.266Z,13.68
2018-09-28T19:08:08.295Z,13.65
2018-09-28T19:11:14.011Z,13.66
2018-09-28T19:14:19.075Z,13.61
2018-09-28T19:17:24.985Z,13.64
2018-09-28T19:20:29.991Z,13.60
2018-09-28T19:23:35.059Z,13.59
2018-09-28T19:26:40.107Z,13.46
2018-09-28T19:29:46.085Z,13.46
2018-09-28T19:32:51.111Z,13.30
2018-09-28T19:35:57.143Z,13.30
2018-09-28T19:39:02.606Z,13.29
2018-09-28T19:42:07.624Z,13.34
2018-09-28T19:45:13.578Z,13.21
2018-09-28T19:48:18.621Z,13.18
2018-09-28T19:51:23.633Z,13.24
2018-09-28T19:54:28.780Z,13.30
2018-09-28T19:57:33.838Z,13.29
2018-09-28T20:00:38.841Z,13.31
2018-09-28T20:03:43.864Z,13.29
2018-09-28T20:06:49.686Z,13.27
2018-09-28T20:09:54.727Z,13.17
2018-09-28T20:12:59.868Z,13.10
2018-09-28T20:16:05.854Z,13.08
2018-09-28T20:19:10.880Z,12.91
2018-09-28T20:22:16.626Z,12.80
2018-09-28T20:25:21.626Z,12.75
2018-09-28T20:28:26.646Z,12.63
2018-09-28T20:31:32.562Z,12.64
2018-09-28T20:34:37.632Z,12.61
2018-09-28T20:37:42.630Z,12.52
2018-09-28T20:40:47.666Z,12.46
2018-09-28T20:43:53.830Z,12.37
2018-09-28T20:46:58.817Z,12.30
2018-09-28T20:50:04.425Z,12.20
2018-09-28T20:53:09.461Z,12.08
2018-09-28T20:56:14.476Z,11.96
2018-09-28T20:59:19.497Z,11.74
2018-09-28T21:02:24.485Z,11.55
2018-09-28T21:05:29.473Z,11.52
2018-09-28T21:08:34.530Z,11.27
2018-09-28T21:14:53.757Z,10.91
2018-09-28T21:17:58.771Z,10.85
2018-09-28T21:21:03.769Z,10.85
2018-09-28T21:24:08.787Z,10.74
2018-09-28T21:27:13.886Z,10.64
2018-09-28T21:30:19.779Z,10.53
2018-09-28T21:33:24.782Z,10.30
2018-09-28T21:36:29.816Z,10.24
2018-09-28T21:39:35.553Z,10.12
2018-09-28T21:42:40.593Z,9.88
2018-09-28T21:45:45.646Z,9.89
2018-09-28T21:48:51.134Z,9.92
2018-09-28T21:51:56.293Z,9.99
2018-09-28T21:55:01.347Z,9.98
2018-09-28T21:58:06.365Z,9.88
2018-09-28T22:04:14.540Z,9.85
2018-09-28T22:07:20.336Z,9.71
2018-09-28T22:10:25.357Z,9.64
2018-09-28T22:13:31.483Z,9.58
2018-09-28T22:16:37.515Z,9.51
2018-09-28T22:19:42.690Z,9.47
2018-09-28T22:22:47.805Z,9.39
2018-09-28T22:25:53.556Z,9.32
2018-09-28T22:28:58.610Z,9.22
2018-09-28T22:32:04.625Z,9.14
2018-09-28T22:35:09.697Z,9.10
2018-09-28T22:38:14.740Z,9.02
2018-09-28T22:41:20.660Z,9.03
2018-09-28T22:44:25.697Z,8.97
2018-09-28T22:47:31.545Z,8.87
2018-09-28T22:50:36.573Z,8.82
2018-09-28T22:53:41.596Z,8.75
2018-09-28T22:56:47.602Z,8.68
2018-09-28T22:59:52.664Z,8.67
2018-09-28T23:02:57.716Z,8.60
2018-09-28T23:06:02.722Z,8.57
2018-09-28T23:09:08.334Z,8.55
2018-09-28T23:12:13.351Z,8.51
2018-09-28T23:15:18.389Z,8.48
2018-09-28T23:18:23.515Z,8.41
2018-09-28T23:21:28.788Z,8.32
2018-09-28T23:24:33.790Z,8.18
2018-09-28T23:27:39.832Z,8.10
2018-09-28T23:30:45.781Z,8.09
2018-09-28T23:33:52.337Z,8.06
2018-09-28T23:36:58.107Z,8.01
2018-09-28T23:40:03.313Z,7.91
2018-09-28T23:43:09.886Z,7.89
2018-09-28T23:46:15.610Z,7.78
2018-09-28T23:49:21.731Z,7.70
2018-09-28T23:52:26.742Z,7.60
2018-09-28T23:55:33.772Z,7.55
2018-09-28T23:58:38.882Z,7.55
